Monkey Island, Oklahoma
Current Conditions -  °F | °C
As of 5:15 PM on Thursday 27 Nov 2014 (Local Time) from KGMJ Reporting Station
Clear Clear  
Wind Chill: 41°   Ceiling: Unl
Heat Index: 41°   Visibility: 10mi
Dew Point: 25°   Wind: 3mph
Humidity: 53%   Direction: 120°ESE
Pressure: 30.41"   Gusts: NA
Location:  36.651°N, 94.9303°W
Report Text: KGMJ 272315Z AUTO 12003KT 10SM CLR 05/M04 A3041 RMK AO2
Loading
Personal Weather Stations






























Interactive Weather Map New forecast layout! Learn more

10-Day Weather Forecast

Advertisements
Track Severe Weather on mobile